createdAt,value
2023-03-17T00:00:53.088Z,47.88
2023-03-17T00:03:29.736Z,48.08
2023-03-17T00:06:00.922Z,48.15
2023-03-17T00:08:33.938Z,48.32
2023-03-17T00:11:03.729Z,48.68
2023-03-17T00:13:33.164Z,49.03
2023-03-17T00:16:05.719Z,49.18
2023-03-17T00:18:35.933Z,49.28
2023-03-17T00:21:06.309Z,49.21
2023-03-17T00:23:36.242Z,49.21
2023-03-17T00:26:05.307Z,49.09
2023-03-17T00:28:34.656Z,48.74
2023-03-17T00:31:17.145Z,48.49
2023-03-17T00:33:47.014Z,48.39
2023-03-17T00:36:29.867Z,48.29
2023-03-17T00:38:59.905Z,48.17
2023-03-17T00:41:29.892Z,47.93
2023-03-17T00:43:59.218Z,47.98
2023-03-17T00:46:36.233Z,47.72
2023-03-17T00:49:21.493Z,47.54
2023-03-17T00:51:52.378Z,47.72
2023-03-17T00:54:21.685Z,47.71
2023-03-17T00:56:52.669Z,47.38
2023-03-17T00:59:39.314Z,47.36
2023-03-17T01:02:14.162Z,47.40
2023-03-17T01:04:49.994Z,47.23
2023-03-17T01:07:23.017Z,47.26
2023-03-17T01:09:53.095Z,47.15
2023-03-17T01:12:21.986Z,46.96
2023-03-17T01:14:50.715Z,46.90
2023-03-17T01:17:22.466Z,47.14
2023-03-17T01:19:51.363Z,47.56
2023-03-17T01:22:20.908Z,48.17
2023-03-17T01:24:49.739Z,48.40
2023-03-17T01:27:22.433Z,48.65
2023-03-17T01:29:55.673Z,48.80
2023-03-17T01:32:24.913Z,49.10
2023-03-17T01:34:54.110Z,49.17
2023-03-17T01:37:23.120Z,49.11
2023-03-17T01:39:52.925Z,49.19
2023-03-17T01:42:22.100Z,49.28
2023-03-17T01:45:04.299Z,49.60
2023-03-17T01:47:34.571Z,49.52
2023-03-17T01:50:09.459Z,49.73
2023-03-17T01:52:40.474Z,49.51
2023-03-17T01:55:17.692Z,49.78
2023-03-17T01:57:56.941Z,50.14
2023-03-17T02:00:26.924Z,50.13
2023-03-17T02:02:57.557Z,50.37
2023-03-17T02:05:30.185Z,50.42
2023-03-17T02:08:00.498Z,50.60
2023-03-17T02:10:30.566Z,50.62
2023-03-17T02:13:06.351Z,50.92
2023-03-17T02:15:44.797Z,51.19
2023-03-17T02:18:14.080Z,51.33
2023-03-17T02:20:49.362Z,51.39
2023-03-17T02:23:24.009Z,51.53
2023-03-17T02:25:54.764Z,51.73
2023-03-17T02:28:28.735Z,52.14
2023-03-17T02:30:58.325Z,52.37
2023-03-17T02:33:28.134Z,52.06
2023-03-17T02:35:57.421Z,51.69
2023-03-17T02:38:27.422Z,51.82
2023-03-17T02:40:56.367Z,51.90
2023-03-17T02:43:25.136Z,52.09
2023-03-17T02:45:54.029Z,51.94
2023-03-17T02:48:23.887Z,52.01
2023-03-17T02:50:54.981Z,51.74
2023-03-17T02:53:24.549Z,51.51
2023-03-17T02:55:53.637Z,51.63
2023-03-17T02:58:22.725Z,52.01
2023-03-17T03:00:52.170Z,52.21
2023-03-17T03:03:20.968Z,52.52
2023-03-17T03:05:49.863Z,53.08
2023-03-17T03:08:18.716Z,53.21
2023-03-17T03:10:47.520Z,53.15
2023-03-17T03:13:16.884Z,53.06
2023-03-17T03:15:45.764Z,53.09
2023-03-17T03:18:14.763Z,53.28
2023-03-17T03:20:45.714Z,53.00
2023-03-17T03:23:16.427Z,52.72
2023-03-17T03:25:45.284Z,52.72
2023-03-17T03:28:15.238Z,52.73
2023-03-17T03:30:46.077Z,52.82
2023-03-17T03:33:16.464Z,53.00
2023-03-17T03:35:45.573Z,53.03
2023-03-17T03:38:14.873Z,52.89
2023-03-17T03:40:43.779Z,52.78
2023-03-17T03:43:23.066Z,52.70
2023-03-17T03:45:53.369Z,52.85
2023-03-17T03:48:22.858Z,53.04
2023-03-17T03:50:51.842Z,53.09
2023-03-17T03:53:20.607Z,52.68
2023-03-17T03:55:49.412Z,52.48
2023-03-17T03:58:18.288Z,52.69
2023-03-17T04:00:47.633Z,52.67
2023-03-17T04:03:16.947Z,52.73
2023-03-17T04:05:45.825Z,52.82
2023-03-17T04:08:14.850Z,52.73
2023-03-17T04:10:44.155Z,53.17
2023-03-17T04:13:14.633Z,53.51
2023-03-17T04:15:43.786Z,53.74
2023-03-17T04:18:13.667Z,53.68
2023-03-17T04:20:43.031Z,53.55
2023-03-17T04:23:13.452Z,53.52
2023-03-17T04:25:42.803Z,53.53
2023-03-17T04:28:12.556Z,53.89
2023-03-17T04:30:42.117Z,54.01
2023-03-17T04:33:12.014Z,53.86
2023-03-17T04:35:41.322Z,54.19
2023-03-17T04:38:13.792Z,54.86
2023-03-17T04:40:43.359Z,54.49
2023-03-17T04:43:12.493Z,54.49
2023-03-17T04:45:41.535Z,54.42
2023-03-17T04:48:10.358Z,54.55
2023-03-17T04:50:39.658Z,54.46
2023-03-17T04:53:09.661Z,54.33
2023-03-17T04:55:39.081Z,54.64
2023-03-17T04:58:09.234Z,55.00
2023-03-17T05:00:40.073Z,54.86
2023-03-17T05:03:23.894Z,55.09
2023-03-17T05:05:55.951Z,54.94
2023-03-17T05:08:26.295Z,54.74
2023-03-17T05:10:59.480Z,54.90
2023-03-17T05:13:28.365Z,55.04
2023-03-17T05:15:59.774Z,55.73
2023-03-17T05:18:29.175Z,56.11
2023-03-17T05:20:58.190Z,55.69
2023-03-17T05:23:27.539Z,55.66
2023-03-17T05:25:57.001Z,55.74
2023-03-17T05:28:27.322Z,55.72
2023-03-17T05:30:57.258Z,56.32
2023-03-17T05:33:27.091Z,56.61
2023-03-17T05:35:56.678Z,56.74
2023-03-17T05:38:26.397Z,56.85
2023-03-17T05:40:55.316Z,56.42
2023-03-17T05:43:24.437Z,56.30
2023-03-17T05:45:53.597Z,56.20
2023-03-17T05:48:23.784Z,56.11
2023-03-17T05:50:53.835Z,56.70
2023-03-17T05:53:24.018Z,56.80
2023-03-17T05:55:53.722Z,56.39
2023-03-17T05:58:22.777Z,54.59
2023-03-17T06:00:52.394Z,53.06
2023-03-17T06:03:22.944Z,51.74
2023-03-17T06:05:52.340Z,50.45
2023-03-17T06:08:21.995Z,49.29
2023-03-17T06:10:51.937Z,48.10
2023-03-17T06:13:21.215Z,47.35
2023-03-17T06:15:55.438Z,46.26
2023-03-17T06:18:24.861Z,45.36
2023-03-17T06:20:54.102Z,44.50
2023-03-17T06:23:24.399Z,43.69
2023-03-17T06:25:53.626Z,42.82
2023-03-17T06:28:22.848Z,41.61
2023-03-17T06:30:51.977Z,40.19
2023-03-17T06:33:21.142Z,39.40
2023-03-17T06:35:50.093Z,38.59
2023-03-17T06:38:19.119Z,37.62
2023-03-17T06:40:48.349Z,36.75
2023-03-17T06:43:19.958Z,36.14
2023-03-17T06:45:49.327Z,35.86
2023-03-17T06:48:18.750Z,35.14
2023-03-17T06:50:48.387Z,34.73
2023-03-17T06:53:17.934Z,34.61
2023-03-17T06:55:47.586Z,34.10
2023-03-17T06:58:17.731Z,33.68
2023-03-17T07:00:49.246Z,33.46
2023-03-17T07:03:18.563Z,32.59
2023-03-17T07:05:48.368Z,32.19
2023-03-17T07:08:18.429Z,31.54
2023-03-17T07:10:47.492Z,31.04
2023-03-17T07:13:16.688Z,30.37
2023-03-17T07:15:46.376Z,30.09
2023-03-17T07:18:15.424Z,29.11
2023-03-17T07:20:44.525Z,28.94
2023-03-17T07:23:19.538Z,28.49
2023-03-17T07:25:49.341Z,28.12
2023-03-17T07:28:19.646Z,27.80
2023-03-17T07:30:49.872Z,27.62
2023-03-17T07:33:22.797Z,27.18
2023-03-17T07:35:52.643Z,26.93
2023-03-17T07:38:21.996Z,26.53
2023-03-17T07:40:51.436Z,25.99
2023-03-17T07:43:20.730Z,25.29
2023-03-17T07:45:49.945Z,25.15
2023-03-17T07:48:19.692Z,24.82
2023-03-17T07:50:49.122Z,24.18
2023-03-17T07:53:19.390Z,23.84
2023-03-17T07:55:48.699Z,23.31
2023-03-17T07:58:18.312Z,22.43
2023-03-17T08:00:49.105Z,21.95
2023-03-17T08:03:19.937Z,21.42
2023-03-17T08:05:58.465Z,21.00
2023-03-17T08:08:29.009Z,20.93
2023-03-17T08:11:05.913Z,20.61
2023-03-17T08:13:35.806Z,20.49
2023-03-17T08:16:05.306Z,19.90
2023-03-17T08:18:34.920Z,19.66
2023-03-17T08:21:05.000Z,19.46
2023-03-17T08:23:36.038Z,19.01
2023-03-17T08:26:05.958Z,18.57
2023-03-17T08:28:36.630Z,18.28
2023-03-17T08:31:14.701Z,18.40
2023-03-17T08:33:46.807Z,17.38
2023-03-17T08:36:17.917Z,16.82
2023-03-17T08:38:48.806Z,16.54
2023-03-17T08:41:24.802Z,16.08
2023-03-17T08:43:54.986Z,15.88
2023-03-17T08:46:30.300Z,15.30
2023-03-17T08:49:01.950Z,14.91
2023-03-17T08:51:34.755Z,14.32
2023-03-17T08:54:06.310Z,13.81
2023-03-17T08:56:35.403Z,13.84
2023-03-17T08:59:07.906Z,13.72
2023-03-17T09:01:37.980Z,13.92
2023-03-17T09:04:07.910Z,13.82
2023-03-17T09:06:39.649Z,13.58
2023-03-17T09:09:10.834Z,13.02
2023-03-17T09:11:40.988Z,12.88
2023-03-17T09:14:11.731Z,12.99
2023-03-17T09:16:41.298Z,13.02
2023-03-17T09:19:10.718Z,13.38
2023-03-17T09:21:39.929Z,13.49
2023-03-17T09:24:09.216Z,13.38
2023-03-17T09:26:38.355Z,12.99
2023-03-17T09:29:07.876Z,12.87
2023-03-17T09:31:37.239Z,12.69
2023-03-17T09:34:06.803Z,13.00
2023-03-17T09:36:35.778Z,12.94
2023-03-17T09:39:05.174Z,13.37
2023-03-17T09:41:51.836Z,13.35
2023-03-17T09:44:45.471Z,13.50
2023-03-17T09:47:48.406Z,13.50
2023-03-17T09:50:25.950Z,13.37
2023-03-17T09:52:58.916Z,13.06
2023-03-17T09:55:33.294Z,12.49
2023-03-17T09:58:04.122Z,12.35
2023-03-17T10:00:33.538Z,12.19
2023-03-17T10:03:02.927Z,11.85
2023-03-17T10:05:36.760Z,11.87
2023-03-17T10:08:31.524Z,11.19
2023-03-17T10:11:43.692Z,10.96
2023-03-17T10:14:34.859Z,11.05
2023-03-17T10:17:24.247Z,10.89
2023-03-17T10:20:05.817Z,10.98
2023-03-17T10:22:54.151Z,11.17
2023-03-17T10:25:35.625Z,10.73
2023-03-17T10:28:09.254Z,10.55
2023-03-17T10:30:39.790Z,9.98
2023-03-17T10:33:10.029Z,9.98
2023-03-17T10:35:40.335Z,9.83
2023-03-17T10:38:22.290Z,9.53
2023-03-17T10:41:06.552Z,9.53
2023-03-17T10:43:42.702Z,9.24
2023-03-17T10:46:53.002Z,9.01
2023-03-17T10:49:25.048Z,8.79
2023-03-17T10:51:55.995Z,8.30
2023-03-17T10:54:29.358Z,8.01
2023-03-17T10:57:09.948Z,7.90
2023-03-17T10:59:45.176Z,8.00
2023-03-17T11:02:21.849Z,7.93
2023-03-17T11:05:00.400Z,8.15
2023-03-17T11:07:50.631Z,8.63
2023-03-17T11:10:26.375Z,8.80
2023-03-17T11:13:02.182Z,8.67
2023-03-17T11:15:41.954Z,8.29
2023-03-17T11:18:37.542Z,8.07
2023-03-17T11:21:13.143Z,8.17
2023-03-17T11:23:43.101Z,8.08
2023-03-17T11:26:43.676Z,7.92
2023-03-17T11:29:12.805Z,8.02
2023-03-17T11:31:44.764Z,7.82
2023-03-17T11:34:36.817Z,7.82
2023-03-17T11:37:17.709Z,8.21
2023-03-17T11:40:03.615Z,7.84
2023-03-17T11:42:33.134Z,8.10
2023-03-17T11:45:15.815Z,8.03
2023-03-17T11:48:07.699Z,8.12
2023-03-17T11:50:39.749Z,8.11
2023-03-17T11:53:19.895Z,8.01
2023-03-17T11:55:58.309Z,7.92
2023-03-17T11:58:36.195Z,7.65
2023-03-17T12:01:12.643Z,7.66
2023-03-17T12:03:47.878Z,7.70
2023-03-17T12:06:22.833Z,7.87
2023-03-17T12:09:01.048Z,8.05
2023-03-17T12:11:36.444Z,8.08
2023-03-17T12:14:29.141Z,7.92
2023-03-17T12:17:06.610Z,8.13
2023-03-17T12:19:42.905Z,8.14
2023-03-17T12:22:33.347Z,8.34
2023-03-17T12:25:29.397Z,8.29
2023-03-17T12:28:09.522Z,8.11
2023-03-17T12:30:56.635Z,8.02
2023-03-17T12:34:02.179Z,7.66
2023-03-17T12:36:32.600Z,7.58
2023-03-17T12:39:09.904Z,7.25
2023-03-17T12:42:19.111Z,6.89
2023-03-17T12:45:09.988Z,6.79
2023-03-17T12:48:30.183Z,6.92
2023-03-17T12:51:18.431Z,6.56
2023-03-17T12:53:50.244Z,6.29
2023-03-17T12:56:21.532Z,6.22
2023-03-17T12:58:53.667Z,5.94
2023-03-17T13:02:49.195Z,5.65
2023-03-17T13:05:29.666Z,5.96
2023-03-17T13:08:02.937Z,6.02
2023-03-17T13:10:44.280Z,6.19
2023-03-17T13:13:41.121Z,6.40
2023-03-17T13:16:41.946Z,6.60
2023-03-17T13:19:21.618Z,6.46
2023-03-17T13:22:06.037Z,6.58
2023-03-17T13:24:49.463Z,6.65
2023-03-17T13:27:54.735Z,6.73
2023-03-17T13:30:26.955Z,6.88
2023-03-17T13:33:23.801Z,6.96
2023-03-17T13:35:53.103Z,7.15
2023-03-17T13:38:45.405Z,7.11
2023-03-17T13:41:42.283Z,7.05
2023-03-17T13:44:15.733Z,7.03
2023-03-17T13:46:47.693Z,6.81
2023-03-17T13:49:26.121Z,6.68
2023-03-17T13:52:13.232Z,6.68
2023-03-17T13:54:51.690Z,6.84
2023-03-17T13:57:36.958Z,7.18
2023-03-17T14:00:23.532Z,7.74
2023-03-17T14:07:16.903Z,7.86
2023-03-17T14:09:47.054Z,7.77
2023-03-17T14:12:29.099Z,7.70
2023-03-17T14:15:14.077Z,7.65
2023-03-17T14:17:57.033Z,7.91
2023-03-17T14:20:28.402Z,7.73
2023-03-17T14:24:14.989Z,7.88
2023-03-17T14:26:45.282Z,7.85
2023-03-17T14:29:19.051Z,7.76
2023-03-17T14:31:54.069Z,7.91
2023-03-17T14:34:25.507Z,8.09
2023-03-17T14:37:00.053Z,8.36
2023-03-17T14:39:30.692Z,8.48
2023-03-17T14:42:07.956Z,8.63
2023-03-17T14:44:43.372Z,8.87
2023-03-17T14:47:21.350Z,8.58
2023-03-17T14:49:54.948Z,8.71
2023-03-17T14:52:33.137Z,8.86
2023-03-17T14:55:02.957Z,8.67
2023-03-17T14:57:33.591Z,8.96
2023-03-17T15:00:26.564Z,8.98
2023-03-17T15:02:57.285Z,9.38
2023-03-17T15:06:37.591Z,9.65
2023-03-17T15:09:20.030Z,10.02
2023-03-17T15:11:49.916Z,9.65
2023-03-17T15:14:22.165Z,9.44
2023-03-17T15:16:54.058Z,9.59
2023-03-17T15:19:31.239Z,10.00
2023-03-17T15:22:04.949Z,10.10
2023-03-17T15:24:41.546Z,10.11
2023-03-17T15:27:19.214Z,10.39
2023-03-17T15:29:48.772Z,10.37
2023-03-17T15:32:24.119Z,10.78
2023-03-17T15:34:57.495Z,10.80
2023-03-17T15:37:28.076Z,11.00
2023-03-17T15:39:57.806Z,11.11
2023-03-17T15:42:33.122Z,11.64
2023-03-17T15:45:03.223Z,12.03
2023-03-17T15:47:37.097Z,11.85
2023-03-17T15:50:17.554Z,12.08
2023-03-17T15:52:47.033Z,12.64
2023-03-17T15:55:23.776Z,12.84
2023-03-17T15:57:55.972Z,13.00
2023-03-17T16:00:30.404Z,13.05
2023-03-17T16:03:19.600Z,12.84
2023-03-17T16:05:49.048Z,13.85
2023-03-17T16:08:18.552Z,13.95
2023-03-17T16:10:48.057Z,14.27
2023-03-17T16:13:17.375Z,14.59
2023-03-17T16:15:54.631Z,15.01
2023-03-17T16:18:38.742Z,15.44
2023-03-17T16:21:08.892Z,15.66
2023-03-17T16:23:38.630Z,16.14
2023-03-17T16:26:15.500Z,16.80
2023-03-17T16:28:46.621Z,17.35
2023-03-17T16:31:18.458Z,17.46
2023-03-17T16:33:48.775Z,17.75
2023-03-17T16:36:20.725Z,17.79
2023-03-17T16:38:51.613Z,18.39
2023-03-17T16:41:27.872Z,18.74
2023-03-17T16:44:02.815Z,19.17
2023-03-17T16:46:35.776Z,19.68
2023-03-17T16:49:06.252Z,19.89
2023-03-17T16:51:36.097Z,19.70
2023-03-17T16:54:06.457Z,20.45
2023-03-17T16:56:39.742Z,20.94
2023-03-17T16:59:19.555Z,21.35
2023-03-17T17:02:21.114Z,21.86
2023-03-17T17:04:51.273Z,22.02
2023-03-17T17:07:21.782Z,22.27
2023-03-17T17:09:51.703Z,22.64
2023-03-17T17:12:21.693Z,23.11
2023-03-17T17:14:50.936Z,23.42
2023-03-17T17:17:20.726Z,23.93
2023-03-17T17:19:50.518Z,24.22
2023-03-17T17:22:20.297Z,24.72
2023-03-17T17:24:50.753Z,25.67
2023-03-17T17:27:20.833Z,26.50
2023-03-17T17:29:50.912Z,27.49
2023-03-17T17:32:23.755Z,27.94
2023-03-17T17:34:53.486Z,28.25
2023-03-17T17:37:22.900Z,28.10
2023-03-17T17:39:53.838Z,28.67
2023-03-17T17:42:23.301Z,29.20
2023-03-17T17:44:52.390Z,29.47
2023-03-17T17:47:21.892Z,29.75
2023-03-17T17:49:52.247Z,30.21
2023-03-17T17:52:21.744Z,30.86
2023-03-17T17:54:51.705Z,30.96
2023-03-17T17:57:21.229Z,31.24
2023-03-17T17:59:51.634Z,31.42
2023-03-17T18:02:21.224Z,31.76
2023-03-17T18:04:51.922Z,32.04
2023-03-17T18:07:21.791Z,32.40
2023-03-17T18:09:51.260Z,32.63
2023-03-17T18:12:20.612Z,33.05
2023-03-17T18:14:50.146Z,33.45
2023-03-17T18:17:22.473Z,33.81
2023-03-17T18:19:56.081Z,33.75
2023-03-17T18:22:25.009Z,33.97
2023-03-17T18:24:54.533Z,33.99
2023-03-17T18:27:24.109Z,34.29
2023-03-17T18:29:55.425Z,34.44
2023-03-17T18:32:25.853Z,34.59
2023-03-17T18:34:55.933Z,34.81
2023-03-17T18:37:25.614Z,35.15
2023-03-17T18:40:12.002Z,35.40
2023-03-17T18:42:43.536Z,35.90
2023-03-17T18:45:12.835Z,36.35
2023-03-17T18:47:42.472Z,36.79
2023-03-17T18:50:14.834Z,37.33
2023-03-17T18:52:45.534Z,37.61
2023-03-17T18:55:16.867Z,37.70
2023-03-17T18:57:46.988Z,37.90
2023-03-17T19:00:19.974Z,38.25
2023-03-17T19:02:49.227Z,38.51
2023-03-17T19:05:19.666Z,38.88
2023-03-17T19:07:49.340Z,39.41
2023-03-17T19:10:19.103Z,39.77
2023-03-17T19:12:48.421Z,40.33
2023-03-17T19:15:18.823Z,40.42
2023-03-17T19:17:48.527Z,41.40
2023-03-17T19:20:19.224Z,41.99
2023-03-17T19:22:48.645Z,42.48
2023-03-17T19:25:18.413Z,42.65
2023-03-17T19:27:47.797Z,42.69
2023-03-17T19:30:17.190Z,43.23
2023-03-17T19:32:47.181Z,43.57
2023-03-17T19:35:16.695Z,43.86
2023-03-17T19:37:47.471Z,43.82
2023-03-17T19:40:17.261Z,44.15
2023-03-17T19:42:47.268Z,44.34
2023-03-17T19:45:17.072Z,44.42
2023-03-17T19:47:47.672Z,44.92
2023-03-17T19:50:17.347Z,44.90
2023-03-17T19:52:46.918Z,44.91
2023-03-17T19:55:17.064Z,44.84
2023-03-17T19:57:46.195Z,45.39
2023-03-17T20:00:16.761Z,45.50
2023-03-17T20:02:46.874Z,45.43
2023-03-17T20:05:16.921Z,45.54
2023-03-17T20:07:47.461Z,45.54
2023-03-17T20:10:17.757Z,45.78
2023-03-17T20:12:48.072Z,45.86
2023-03-17T20:15:17.548Z,45.97
2023-03-17T20:17:47.146Z,46.28
2023-03-17T20:20:16.662Z,46.95
2023-03-17T20:22:46.578Z,47.39
2023-03-17T20:25:16.100Z,47.61
2023-03-17T20:27:45.543Z,48.02
2023-03-17T20:30:20.776Z,48.00
2023-03-17T20:32:51.518Z,48.08
2023-03-17T20:35:21.532Z,48.77
2023-03-17T20:37:53.304Z,49.03
2023-03-17T20:40:22.614Z,49.45
2023-03-17T20:42:52.949Z,49.55
2023-03-17T20:45:22.512Z,49.55
2023-03-17T20:47:52.250Z,49.73
2023-03-17T20:50:22.281Z,49.79
2023-03-17T20:52:52.924Z,50.08
2023-03-17T20:55:22.284Z,50.40
2023-03-17T20:57:52.314Z,50.64
2023-03-17T21:00:22.851Z,51.10
2023-03-17T21:02:52.489Z,51.14
2023-03-17T21:05:25.877Z,51.66
2023-03-17T21:07:57.851Z,51.62
2023-03-17T21:10:29.569Z,51.48
2023-03-17T21:12:58.810Z,51.45
2023-03-17T21:15:29.599Z,52.06
2023-03-17T21:18:01.202Z,52.74
2023-03-17T21:20:30.832Z,53.04
2023-03-17T21:23:01.086Z,52.95
2023-03-17T21:25:30.661Z,53.20
2023-03-17T21:28:00.749Z,53.42
2023-03-17T21:30:30.882Z,53.63
2023-03-17T21:33:01.502Z,53.88
2023-03-17T21:35:34.975Z,54.81
2023-03-17T21:38:04.416Z,54.74
2023-03-17T21:40:33.778Z,54.73
2023-03-17T21:43:03.447Z,54.70
2023-03-17T21:45:32.865Z,54.82
2023-03-17T21:48:02.701Z,55.21
2023-03-17T21:50:31.953Z,56.05
2023-03-17T21:53:02.343Z,56.31
2023-03-17T21:55:32.182Z,56.23
2023-03-17T21:58:03.023Z,56.00
2023-03-17T22:00:39.368Z,56.09
2023-03-17T22:03:14.242Z,56.08
2023-03-17T22:05:43.469Z,56.37
2023-03-17T22:08:13.667Z,56.49
2023-03-17T22:10:43.650Z,55.90
2023-03-17T22:13:13.293Z,55.75
2023-03-17T22:15:42.945Z,55.98
2023-03-17T22:18:12.545Z,56.07
2023-03-17T22:20:41.764Z,56.05
2023-03-17T22:23:11.283Z,56.66
2023-03-17T22:25:40.683Z,56.54
2023-03-17T22:28:10.000Z,55.86
2023-03-17T22:30:43.013Z,56.09
2023-03-17T22:33:13.431Z,56.54
2023-03-17T22:35:42.796Z,56.78
2023-03-17T22:38:13.679Z,57.58
2023-03-17T22:40:43.255Z,58.14
2023-03-17T22:43:13.337Z,57.99
2023-03-17T22:45:42.551Z,57.53
2023-03-17T22:48:12.348Z,57.87
2023-03-17T22:50:43.654Z,58.45
2023-03-17T22:53:13.448Z,58.47
2023-03-17T22:55:42.771Z,58.18
2023-03-17T22:58:12.190Z,58.40
2023-03-17T23:00:41.298Z,58.58
2023-03-17T23:03:10.639Z,58.90
2023-03-17T23:05:40.311Z,58.99
2023-03-17T23:08:09.403Z,58.48
2023-03-17T23:10:40.429Z,58.35
2023-03-17T23:13:09.615Z,59.40
2023-03-17T23:15:39.189Z,59.78
2023-03-17T23:18:09.521Z,60.13
2023-03-17T23:20:40.495Z,59.94
2023-03-17T23:23:12.052Z,59.95
2023-03-17T23:25:41.562Z,59.96
2023-03-17T23:28:11.316Z,59.69
2023-03-17T23:30:41.422Z,60.54
2023-03-17T23:33:10.832Z,60.16
2023-03-17T23:35:40.751Z,59.25
2023-03-17T23:38:09.881Z,59.19
2023-03-17T23:40:40.208Z,59.31
2023-03-17T23:43:10.002Z,59.74
2023-03-17T23:45:41.844Z,59.70
2023-03-17T23:48:12.462Z,59.72
2023-03-17T23:50:42.772Z,60.04
2023-03-17T23:53:12.308Z,60.31
2023-03-17T23:55:41.364Z,60.64
2023-03-17T23:58:10.203Z,60.45
